sensor_id;sensor_type;location;lat;lon;timestamp;pressure;altitude;pressure_sealevel;temperature;humidity
58753;BME280;44525;46.052;13.610;2022-12-18T00:01:29;101877.75;;;4.21;60.71
58753;BME280;44525;46.052;13.610;2022-12-18T00:03:56;101883.97;;;4.02;60.53
58753;BME280;44525;46.052;13.610;2022-12-18T00:06:24;101897.00;;;4.05;62.26
58753;BME280;44525;46.052;13.610;2022-12-18T00:08:49;101905.06;;;3.92;60.65
58753;BME280;44525;46.052;13.610;2022-12-18T00:11:18;101895.97;;;3.99;61.60
58753;BME280;44525;46.052;13.610;2022-12-18T00:13:44;101900.50;;;3.92;61.14
58753;BME280;44525;46.052;13.610;2022-12-18T00:16:11;101914.38;;;4.09;60.63
58753;BME280;44525;46.052;13.610;2022-12-18T00:18:37;101898.84;;;3.98;60.96
58753;BME280;44525;46.052;13.610;2022-12-18T00:21:05;101902.56;;;4.10;61.23
58753;BME280;44525;46.052;13.610;2022-12-18T00:23:32;101920.34;;;3.98;61.32
58753;BME280;44525;46.052;13.610;2022-12-18T00:26:02;101919.72;;;4.02;61.50
58753;BME280;44525;46.052;13.610;2022-12-18T00:28:28;101927.78;;;3.89;61.58
58753;BME280;44525;46.052;13.610;2022-12-18T00:31:20;101928.63;;;4.03;61.44
58753;BME280;44525;46.052;13.610;2022-12-18T00:33:47;101924.28;;;3.95;60.54
58753;BME280;44525;46.052;13.610;2022-12-18T00:36:15;101927.19;;;4.07;61.94
58753;BME280;44525;46.052;13.610;2022-12-18T00:38:40;101942.28;;;3.95;61.57
58753;BME280;44525;46.052;13.610;2022-12-18T00:41:07;101928.22;;;4.06;62.03
58753;BME280;44525;46.052;13.610;2022-12-18T00:43:33;101932.56;;;4.00;61.99
58753;BME280;44525;46.052;13.610;2022-12-18T00:45:58;101935.22;;;3.94;61.79
58753;BME280;44525;46.052;13.610;2022-12-18T00:48:24;101924.50;;;3.87;61.85
58753;BME280;44525;46.052;13.610;2022-12-18T00:50:50;101936.91;;;3.95;62.04
58753;BME280;44525;46.052;13.610;2022-12-18T00:53:15;101929.03;;;3.93;62.20
58753;BME280;44525;46.052;13.610;2022-12-18T00:55:41;101927.41;;;3.99;62.57
58753;BME280;44525;46.052;13.610;2022-12-18T00:58:08;101924.28;;;4.02;62.21
58753;BME280;44525;46.052;13.610;2022-12-18T01:00:34;101933.56;;;3.86;62.76
58753;BME280;44525;46.052;13.610;2022-12-18T01:02:59;101935.84;;;3.82;62.95
58753;BME280;44525;46.052;13.610;2022-12-18T01:05:25;101944.13;;;3.88;62.36
58753;BME280;44525;46.052;13.610;2022-12-18T01:07:51;101950.31;;;3.81;62.67
58753;BME280;44525;46.052;13.610;2022-12-18T01:10:16;101937.31;;;3.92;62.69
58753;BME280;44525;46.052;13.610;2022-12-18T01:12:42;101948.06;;;3.98;62.35
58753;BME280;44525;46.052;13.610;2022-12-18T01:15:08;101945.56;;;3.97;62.26
58753;BME280;44525;46.052;13.610;2022-12-18T01:17:34;101940.41;;;4.09;62.33
58753;BME280;44525;46.052;13.610;2022-12-18T01:20:00;101935.88;;;3.96;61.84
58753;BME280;44525;46.052;13.610;2022-12-18T01:22:25;101919.53;;;4.04;63.01
58753;BME280;44525;46.052;13.610;2022-12-18T01:24:51;101927.59;;;4.04;62.60
58753;BME280;44525;46.052;13.610;2022-12-18T01:27:16;101932.13;;;3.97;62.80
58753;BME280;44525;46.052;13.610;2022-12-18T01:29:41;101929.66;;;4.09;62.52
58753;BME280;44525;46.052;13.610;2022-12-18T01:32:07;101926.34;;;3.93;62.67
58753;BME280;44525;46.052;13.610;2022-12-18T01:34:33;101940.19;;;3.90;61.64
58753;BME280;44525;46.052;13.610;2022-12-18T01:37:02;101950.72;;;3.78;62.04
58753;BME280;44525;46.052;13.610;2022-12-18T01:39:28;101948.47;;;3.89;61.88
58753;BME280;44525;46.052;13.610;2022-12-18T01:41:53;101950.94;;;3.90;61.21
58753;BME280;44525;46.052;13.610;2022-12-18T01:49:49;101958.81;;;3.92;61.82
58753;BME280;44525;46.052;13.610;2022-12-18T01:52:15;101962.94;;;3.88;62.09
58753;BME280;44525;46.052;13.610;2022-12-18T01:54:42;101962.31;;;3.92;62.34
58753;BME280;44525;46.052;13.610;2022-12-18T01:57:08;101984.00;;;3.77;61.93
58753;BME280;44525;46.052;13.610;2022-12-18T01:59:35;101979.84;;;3.75;63.24
58753;BME280;44525;46.052;13.610;2022-12-18T02:02:02;101990.59;;;3.68;62.49
58753;BME280;44525;46.052;13.610;2022-12-18T02:04:27;101989.72;;;3.67;61.50
58753;BME280;44525;46.052;13.610;2022-12-18T02:12:24;101982.31;;;3.76;61.95
58753;BME280;44525;46.052;13.610;2022-12-18T02:15:07;101997.22;;;3.72;62.10
58753;BME280;44525;46.052;13.610;2022-12-18T02:28:16;102000.97;;;3.91;62.57
58753;BME280;44525;46.052;13.610;2022-12-18T02:30:47;101997.25;;;3.92;61.56
58753;BME280;44525;46.052;13.610;2022-12-18T02:33:14;102012.78;;;3.97;61.74
58753;BME280;44525;46.052;13.610;2022-12-18T02:35:41;102013.34;;;3.72;61.71
58753;BME280;44525;46.052;13.610;2022-12-18T02:38:08;102009.78;;;3.65;61.33
58753;BME280;44525;46.052;13.610;2022-12-18T02:40:34;102021.44;;;3.85;61.59
58753;BME280;44525;46.052;13.610;2022-12-18T02:43:13;102023.63;;;3.62;61.96
58753;BME280;44525;46.052;13.610;2022-12-18T02:48:49;102020.34;;;3.73;62.16
58753;BME280;44525;46.052;13.610;2022-12-18T02:53:51;102029.06;;;3.75;61.97
58753;BME280;44525;46.052;13.610;2022-12-18T02:56:22;102031.03;;;3.60;60.94
58753;BME280;44525;46.052;13.610;2022-12-18T02:59:04;102029.00;;;3.62;61.68
58753;BME280;44525;46.052;13.610;2022-12-18T03:01:54;102019.06;;;3.62;62.41
58753;BME280;44525;46.052;13.610;2022-12-18T03:04:26;102033.16;;;3.71;61.53
58753;BME280;44525;46.052;13.610;2022-12-18T03:06:56;102034.03;;;3.78;61.38
58753;BME280;44525;46.052;13.610;2022-12-18T03:09:34;102034.44;;;3.75;61.60
58753;BME280;44525;46.052;13.610;2022-12-18T03:12:08;102027.81;;;3.78;61.50
58753;BME280;44525;46.052;13.610;2022-12-18T03:14:55;102040.00;;;3.80;61.01
58753;BME280;44525;46.052;13.610;2022-12-18T03:17:26;102039.81;;;3.82;61.83
58753;BME280;44525;46.052;13.610;2022-12-18T03:19:53;102052.38;;;3.68;60.76
58753;BME280;44525;46.052;13.610;2022-12-18T03:22:22;102040.31;;;3.57;61.24
58753;BME280;44525;46.052;13.610;2022-12-18T03:24:48;102053.44;;;3.74;61.38
58753;BME280;44525;46.052;13.610;2022-12-18T03:27:17;102055.69;;;3.70;61.56
58753;BME280;44525;46.052;13.610;2022-12-18T03:29:48;102054.59;;;3.58;61.22
58753;BME280;44525;46.052;13.610;2022-12-18T03:32:24;102061.25;;;3.62;61.60
58753;BME280;44525;46.052;13.610;2022-12-18T03:34:51;102050.38;;;3.42;62.02
58753;BME280;44525;46.052;13.610;2022-12-18T03:37:18;102065.00;;;3.32;61.73
58753;BME280;44525;46.052;13.610;2022-12-18T03:39:44;102055.81;;;3.48;61.25
58753;BME280;44525;46.052;13.610;2022-12-18T03:42:25;102067.56;;;3.47;61.00
58753;BME280;44525;46.052;13.610;2022-12-18T03:47:26;102067.44;;;3.69;60.64
58753;BME280;44525;46.052;13.610;2022-12-18T03:52:39;102077.78;;;3.65;60.70
58753;BME280;44525;46.052;13.610;2022-12-18T03:55:08;102090.16;;;3.60;60.53
58753;BME280;44525;46.052;13.610;2022-12-18T03:57:35;102084.78;;;3.60;61.31
58753;BME280;44525;46.052;13.610;2022-12-18T04:00:08;102068.28;;;3.69;61.53
58753;BME280;44525;46.052;13.610;2022-12-18T04:02:34;102073.44;;;3.64;60.13
58753;BME280;44525;46.052;13.610;2022-12-18T04:05:04;102077.97;;;3.64;61.26
58753;BME280;44525;46.052;13.610;2022-12-18T04:07:30;102078.03;;;3.36;60.40
58753;BME280;44525;46.052;13.610;2022-12-18T04:09:58;102081.81;;;3.48;60.14
58753;BME280;44525;46.052;13.610;2022-12-18T04:12:27;102088.38;;;3.39;60.96
58753;BME280;44525;46.052;13.610;2022-12-18T04:14:54;102083.09;;;3.52;60.86
58753;BME280;44525;46.052;13.610;2022-12-18T04:17:19;102091.28;;;3.44;60.32
58753;BME280;44525;46.052;13.610;2022-12-18T04:19:45;102103.75;;;3.51;60.58
58753;BME280;44525;46.052;13.610;2022-12-18T04:22:10;102102.88;;;3.44;60.28
58753;BME280;44525;46.052;13.610;2022-12-18T04:24:36;102097.19;;;3.61;60.91
58753;BME280;44525;46.052;13.610;2022-12-18T04:27:02;102102.09;;;3.50;60.63
58753;BME280;44525;46.052;13.610;2022-12-18T04:29:27;102093.28;;;3.35;61.58
58753;BME280;44525;46.052;13.610;2022-12-18T04:31:53;102103.69;;;3.38;59.95
58753;BME280;44525;46.052;13.610;2022-12-18T04:34:19;102112.09;;;3.35;60.45
58753;BME280;44525;46.052;13.610;2022-12-18T04:36:45;102115.13;;;3.54;59.33
58753;BME280;44525;46.052;13.610;2022-12-18T04:39:10;102113.94;;;3.63;60.57
58753;BME280;44525;46.052;13.610;2022-12-18T04:41:35;102121.03;;;3.42;60.47
58753;BME280;44525;46.052;13.610;2022-12-18T04:44:01;102121.16;;;3.62;60.36
58753;BME280;44525;46.052;13.610;2022-12-18T04:46:26;102120.28;;;3.48;60.33
58753;BME280;44525;46.052;13.610;2022-12-18T04:48:52;102112.56;;;3.45;59.31
58753;BME280;44525;46.052;13.610;2022-12-18T04:51:17;102134.91;;;3.46;60.17
58753;BME280;44525;46.052;13.610;2022-12-18T04:53:42;102138.19;;;3.41;60.76
58753;BME280;44525;46.052;13.610;2022-12-18T04:56:10;102144.81;;;3.17;60.52
58753;BME280;44525;46.052;13.610;2022-12-18T04:58:37;102148.97;;;3.20;61.25
58753;BME280;44525;46.052;13.610;2022-12-18T05:01:03;102146.47;;;3.18;60.95
58753;BME280;44525;46.052;13.610;2022-12-18T05:03:29;102153.81;;;3.31;59.86
58753;BME280;44525;46.052;13.610;2022-12-18T05:05:54;102164.97;;;3.06;60.84
58753;BME280;44525;46.052;13.610;2022-12-18T05:08:20;102159.47;;;3.14;60.49
58753;BME280;44525;46.052;13.610;2022-12-18T05:10:45;102165.16;;;3.26;60.38
58753;BME280;44525;46.052;13.610;2022-12-18T05:13:10;102171.53;;;3.25;60.13
58753;BME280;44525;46.052;13.610;2022-12-18T05:15:36;102169.06;;;3.30;60.17
58753;BME280;44525;46.052;13.610;2022-12-18T05:18:02;102170.84;;;3.16;61.44
58753;BME280;44525;46.052;13.610;2022-12-18T05:20:28;102179.00;;;3.30;60.48
58753;BME280;44525;46.052;13.610;2022-12-18T05:22:54;102179.13;;;3.22;60.36
58753;BME280;44525;46.052;13.610;2022-12-18T05:25:20;102173.81;;;3.28;60.21
58753;BME280;44525;46.052;13.610;2022-12-18T05:27:46;102178.09;;;3.44;59.74
58753;BME280;44525;46.052;13.610;2022-12-18T05:30:12;102183.19;;;3.39;60.25
58753;BME280;44525;46.052;13.610;2022-12-18T05:32:38;102185.28;;;3.15;59.17
58753;BME280;44525;46.052;13.610;2022-12-18T05:35:04;102189.47;;;3.25;58.72
58753;BME280;44525;46.052;13.610;2022-12-18T05:37:30;102184.19;;;3.31;58.53
58753;BME280;44525;46.052;13.610;2022-12-18T05:39:55;102190.63;;;3.15;59.68
58753;BME280;44525;46.052;13.610;2022-12-18T05:42:21;102190.25;;;3.19;59.34
58753;BME280;44525;46.052;13.610;2022-12-18T05:44:46;102189.94;;;3.28;58.89
58753;BME280;44525;46.052;13.610;2022-12-18T05:47:12;102189.44;;;3.18;58.04
58753;BME280;44525;46.052;13.610;2022-12-18T05:49:38;102181.56;;;3.16;58.93
58753;BME280;44525;46.052;13.610;2022-12-18T05:52:03;102198.00;;;3.07;59.52
58753;BME280;44525;46.052;13.610;2022-12-18T05:54:29;102185.94;;;3.18;59.45
58753;BME280;44525;46.052;13.610;2022-12-18T05:56:54;102195.59;;;3.12;59.22
58753;BME280;44525;46.052;13.610;2022-12-18T05:59:20;102198.47;;;3.10;58.90
58753;BME280;44525;46.052;13.610;2022-12-18T06:01:45;102196.78;;;3.09;58.56
58753;BME280;44525;46.052;13.610;2022-12-18T06:04:11;102196.78;;;3.09;59.40
58753;BME280;44525;46.052;13.610;2022-12-18T06:06:37;102200.69;;;3.07;59.21
58753;BME280;44525;46.052;13.610;2022-12-18T06:09:02;102194.59;;;3.20;59.09
58753;BME280;44525;46.052;13.610;2022-12-18T06:11:34;102190.00;;;3.13;58.24
58753;BME280;44525;46.052;13.610;2022-12-18T06:13:59;102177.41;;;3.14;58.65
58753;BME280;44525;46.052;13.610;2022-12-18T06:16:28;102181.97;;;3.13;58.31
58753;BME280;44525;46.052;13.610;2022-12-18T06:19:00;102198.88;;;3.14;59.00
58753;BME280;44525;46.052;13.610;2022-12-18T06:21:27;102200.50;;;3.08;58.86
58753;BME280;44525;46.052;13.610;2022-12-18T06:23:53;102207.97;;;3.13;58.95
58753;BME280;44525;46.052;13.610;2022-12-18T06:26:18;102210.41;;;3.08;58.92
58753;BME280;44525;46.052;13.610;2022-12-18T06:28:44;102207.00;;;2.99;59.19
58753;BME280;44525;46.052;13.610;2022-12-18T06:31:10;102207.00;;;2.99;59.80
58753;BME280;44525;46.052;13.610;2022-12-18T06:33:36;102200.16;;;2.96;59.01
58753;BME280;44525;46.052;13.610;2022-12-18T06:36:03;102204.41;;;3.06;58.73
58753;BME280;44525;46.052;13.610;2022-12-18T06:38:31;102197.41;;;3.11;59.25
58753;BME280;44525;46.052;13.610;2022-12-18T06:40:56;102216.34;;;3.03;59.02
58753;BME280;44525;46.052;13.610;2022-12-18T06:43:21;102208.50;;;3.02;59.02
58753;BME280;44525;46.052;13.610;2022-12-18T06:45:47;102207.00;;;2.99;59.19
58753;BME280;44525;46.052;13.610;2022-12-18T06:48:18;102208.50;;;3.02;58.39
58753;BME280;44525;46.052;13.610;2022-12-18T06:50:44;102223.88;;;2.93;59.14
58753;BME280;44525;46.052;13.610;2022-12-18T06:53:09;102231.44;;;3.04;58.80
58753;BME280;44525;46.052;13.610;2022-12-18T06:55:34;102226.28;;;2.88;59.39
58753;BME280;44525;46.052;13.610;2022-12-18T06:58:00;102241.91;;;2.99;58.58
58753;BME280;44525;46.052;13.610;2022-12-18T07:00:25;102236.97;;;3.03;58.87
58753;BME280;44525;46.052;13.610;2022-12-18T07:02:50;102238.25;;;3.07;58.33
58753;BME280;44525;46.052;13.610;2022-12-18T07:05:15;102236.34;;;3.01;58.23
58753;BME280;44525;46.052;13.610;2022-12-18T07:07:41;102237.75;;;2.96;58.77
58753;BME280;44525;46.052;13.610;2022-12-18T07:10:06;102232.75;;;2.93;58.80
58753;BME280;44525;46.052;13.610;2022-12-18T07:12:32;102242.47;;;2.94;59.79
58753;BME280;44525;46.052;13.610;2022-12-18T07:14:57;102247.66;;;2.96;59.39
58753;BME280;44525;46.052;13.610;2022-12-18T07:17:22;102252.06;;;3.04;58.45
58753;BME280;44525;46.052;13.610;2022-12-18T07:19:48;102261.59;;;3.06;58.53
58753;BME280;44525;46.052;13.610;2022-12-18T07:22:13;102257.38;;;2.97;57.67
58753;BME280;44525;46.052;13.610;2022-12-18T07:24:38;102263.69;;;3.11;57.06
58753;BME280;44525;46.052;13.610;2022-12-18T07:27:04;102271.72;;;3.04;58.03
58753;BME280;44525;46.052;13.610;2022-12-18T07:29:29;102285.25;;;3.18;58.16
58753;BME280;44525;46.052;13.610;2022-12-18T07:31:55;102284.22;;;3.19;57.89
58753;BME280;44525;46.052;13.610;2022-12-18T07:34:20;102296.88;;;3.25;57.17
58753;BME280;44525;46.052;13.610;2022-12-18T07:36:45;102293.03;;;3.12;56.77
58753;BME280;44525;46.052;13.610;2022-12-18T07:39:11;102283.97;;;3.13;57.24
58753;BME280;44525;46.052;13.610;2022-12-18T07:41:36;102302.19;;;3.18;58.48
58753;BME280;44525;46.052;13.610;2022-12-18T07:44:02;102292.66;;;3.15;57.71
58753;BME280;44525;46.052;13.610;2022-12-18T07:46:27;102295.72;;;3.12;57.91
58753;BME280;44525;46.052;13.610;2022-12-18T07:48:53;102303.00;;;3.19;57.08
58753;BME280;44525;46.052;13.610;2022-12-18T07:51:18;102290.81;;;3.38;56.89
58753;BME280;44525;46.052;13.610;2022-12-18T07:53:44;102300.47;;;3.32;56.93
58753;BME280;44525;46.052;13.610;2022-12-18T07:56:11;102308.84;;;3.44;57.47
58753;BME280;44525;46.052;13.610;2022-12-18T07:58:37;102305.44;;;3.35;57.26
58753;BME280;44525;46.052;13.610;2022-12-18T08:01:10;102302.47;;;3.45;57.00
58753;BME280;44525;46.052;13.610;2022-12-18T08:03:37;102310.56;;;3.30;56.92
58753;BME280;44525;46.052;13.610;2022-12-18T08:06:04;102315.69;;;3.46;56.75
58753;BME280;44525;46.052;13.610;2022-12-18T08:08:30;102315.84;;;3.38;56.81
58753;BME280;44525;46.052;13.610;2022-12-18T08:10:56;102316.97;;;3.50;56.98
58753;BME280;44525;46.052;13.610;2022-12-18T08:13:22;102314.41;;;3.42;58.29
58753;BME280;44525;46.052;13.610;2022-12-18T08:16:05;102313.50;;;3.35;57.38
58753;BME280;44525;46.052;13.610;2022-12-18T08:18:35;102327.22;;;3.40;58.38
58753;BME280;44525;46.052;13.610;2022-12-18T08:23:34;102327.34;;;3.54;58.34
58753;BME280;44525;46.052;13.610;2022-12-18T08:25:59;102325.03;;;3.50;57.17
58753;BME280;44525;46.052;13.610;2022-12-18T08:28:25;102333.09;;;3.50;57.45
58753;BME280;44525;46.052;13.610;2022-12-18T08:30:53;102338.22;;;3.67;55.94
58753;BME280;44525;46.052;13.610;2022-12-18T08:33:18;102329.00;;;3.55;57.53
58753;BME280;44525;46.052;13.610;2022-12-18T08:35:43;102337.44;;;3.73;57.00
58753;BME280;44525;46.052;13.610;2022-12-18T08:38:09;102339.72;;;3.76;56.26
58753;BME280;44525;46.052;13.610;2022-12-18T08:40:34;102342.69;;;3.81;56.34
58753;BME280;44525;46.052;13.610;2022-12-18T08:42:59;102355.53;;;3.64;57.52
58753;BME280;44525;46.052;13.610;2022-12-18T08:45:43;102356.13;;;3.81;56.71
58753;BME280;44525;46.052;13.610;2022-12-18T08:48:09;102346.06;;;3.90;56.89
58753;BME280;44525;46.052;13.610;2022-12-18T08:50:34;102367.25;;;3.78;57.00
58753;BME280;44525;46.052;13.610;2022-12-18T08:53:00;102366.38;;;3.71;57.63
58753;BME280;44525;46.052;13.610;2022-12-18T08:55:26;102370.16;;;3.77;57.95
58753;BME280;44525;46.052;13.610;2022-12-18T08:57:51;102372.44;;;3.80;57.25
58753;BME280;44525;46.052;13.610;2022-12-18T09:00:16;102381.78;;;3.84;57.04
58753;BME280;44525;46.052;13.610;2022-12-18T09:02:42;102382.22;;;3.88;57.02
58753;BME280;44525;46.052;13.610;2022-12-18T09:05:07;102385.28;;;3.84;56.72
58753;BME280;44525;46.052;13.610;2022-12-18T09:07:33;102387.88;;;3.93;56.18
58753;BME280;44525;46.052;13.610;2022-12-18T09:09:58;102390.31;;;4.16;57.40
58753;BME280;44525;46.052;13.610;2022-12-18T09:12:24;102394.59;;;4.10;56.62
58753;BME280;44525;46.052;13.610;2022-12-18T09:14:49;102390.28;;;4.09;57.72
58753;BME280;44525;46.052;13.610;2022-12-18T09:17:15;102392.56;;;4.12;56.08
58753;BME280;44525;46.052;13.610;2022-12-18T09:19:40;102387.81;;;4.14;55.93
58753;BME280;44525;46.052;13.610;2022-12-18T09:22:05;102396.59;;;4.23;57.19
58753;BME280;44525;46.052;13.610;2022-12-18T09:24:31;102396.38;;;4.25;57.30
58753;BME280;44525;46.052;13.610;2022-12-18T09:26:56;102405.34;;;4.32;54.98
58753;BME280;44525;46.052;13.610;2022-12-18T09:29:21;102412.91;;;4.21;56.33
58753;BME280;44525;46.052;13.610;2022-12-18T09:31:47;102405.34;;;4.32;56.63
58753;BME280;44525;46.052;13.610;2022-12-18T09:34:12;102399.97;;;4.32;55.37
58753;BME280;44525;46.052;13.610;2022-12-18T09:36:38;102408.94;;;4.46;55.24
58753;BME280;44525;46.052;13.610;2022-12-18T09:39:03;102404.53;;;4.31;56.04
58753;BME280;44525;46.052;13.610;2022-12-18T09:41:42;102395.00;;;4.35;56.13
58753;BME280;44525;46.052;13.610;2022-12-18T09:44:29;102398.88;;;4.54;55.97
58753;BME280;44525;46.052;13.610;2022-12-18T09:47:03;102404.09;;;4.63;55.38
58753;BME280;44525;46.052;13.610;2022-12-18T09:49:33;102394.53;;;4.53;54.64
58753;BME280;44525;46.052;13.610;2022-12-18T09:52:04;102404.34;;;4.68;54.24
58753;BME280;44525;46.052;13.610;2022-12-18T09:54:40;102406.81;;;5.04;53.87
58753;BME280;44525;46.052;13.610;2022-12-18T09:57:06;102393.88;;;4.86;54.11
58753;BME280;44525;46.052;13.610;2022-12-18T09:59:37;102396.72;;;4.78;54.18
58753;BME280;44525;46.052;13.610;2022-12-18T10:02:24;102396.72;;;4.71;55.28
58753;BME280;44525;46.052;13.610;2022-12-18T10:05:10;102388.63;;;4.71;53.64
58753;BME280;44525;46.052;13.610;2022-12-18T10:07:50;102383.06;;;4.73;54.43
58753;BME280;44525;46.052;13.610;2022-12-18T10:10:39;102390.38;;;4.92;55.67
58753;BME280;44525;46.052;13.610;2022-12-18T10:16:16;102400.41;;;5.12;53.68
58753;BME280;44525;46.052;13.610;2022-12-18T10:21:18;102387.75;;;5.61;52.75
58753;BME280;44525;46.052;13.610;2022-12-18T10:24:12;102391.94;;;5.97;50.41
58753;BME280;44525;46.052;13.610;2022-12-18T10:26:41;102380.47;;;6.55;50.04
58753;BME280;44525;46.052;13.610;2022-12-18T10:29:11;102388.41;;;6.50;49.65
58753;BME280;44525;46.052;13.610;2022-12-18T10:31:37;102385.69;;;6.50;49.28
58753;BME280;44525;46.052;13.610;2022-12-18T10:34:02;102382.75;;;6.65;48.54
58753;BME280;44525;46.052;13.610;2022-12-18T10:36:27;102371.19;;;6.24;50.07
58753;BME280;44525;46.052;13.610;2022-12-18T10:38:53;102378.66;;;5.95;49.87
58753;BME280;44525;46.052;13.610;2022-12-18T10:41:27;102369.06;;;6.46;49.63
58753;BME280;44525;46.052;13.610;2022-12-18T10:44:19;102373.19;;;6.69;48.21
58753;BME280;44525;46.052;13.610;2022-12-18T10:46:48;102362.56;;;6.81;48.35
58753;BME280;44525;46.052;13.610;2022-12-18T10:49:26;102366.13;;;6.68;49.08
58753;BME280;44525;46.052;13.610;2022-12-18T10:52:19;102361.09;;;6.85;48.08
58753;BME280;44525;46.052;13.610;2022-12-18T10:55:01;102353.88;;;7.17;47.57
58753;BME280;44525;46.052;13.610;2022-12-18T10:57:37;102367.72;;;6.89;47.40
58753;BME280;44525;46.052;13.610;2022-12-18T11:00:28;102352.63;;;7.20;46.91
58753;BME280;44525;46.052;13.610;2022-12-18T11:02:54;102350.22;;;7.69;46.61
58753;BME280;44525;46.052;13.610;2022-12-18T11:05:29;102344.56;;;7.45;45.27
58753;BME280;44525;46.052;13.610;2022-12-18T11:07:54;102344.78;;;7.76;45.87
58753;BME280;44525;46.052;13.610;2022-12-18T11:10:31;102333.50;;;8.29;44.25
58753;BME280;44525;46.052;13.610;2022-12-18T11:13:12;102332.47;;;8.49;44.48
58753;BME280;44525;46.052;13.610;2022-12-18T11:15:41;102332.78;;;8.77;43.98
58753;BME280;44525;46.052;13.610;2022-12-18T11:18:20;102334.06;;;8.75;43.68
58753;BME280;44525;46.052;13.610;2022-12-18T11:20:56;102337.84;;;8.55;43.02
58753;BME280;44525;46.052;13.610;2022-12-18T11:23:23;102340.25;;;8.38;43.84
58753;BME280;44525;46.052;13.610;2022-12-18T11:25:57;102324.44;;;8.79;42.29
58753;BME280;44525;46.052;13.610;2022-12-18T11:28:49;102338.81;;;8.61;43.46
58753;BME280;44525;46.052;13.610;2022-12-18T11:31:23;102338.09;;;8.29;44.62
58753;BME280;44525;46.052;13.610;2022-12-18T11:34:37;102336.72;;;8.45;44.15
58753;BME280;44525;46.052;13.610;2022-12-18T11:36:42;102333.59;;;7.97;44.46
58753;BME280;44525;46.052;13.610;2022-12-18T11:39:24;102329.16;;;8.03;44.12
58753;BME280;44525;46.052;13.610;2022-12-18T11:44:57;102331.34;;;8.75;43.22
58753;BME280;44525;46.052;13.610;2022-12-18T11:47:26;102332.03;;;8.52;43.99
58753;BME280;44525;46.052;13.610;2022-12-18T11:49:55;102329.19;;;8.40;43.61
58753;BME280;44525;46.052;13.610;2022-12-18T11:52:36;102325.94;;;8.75;42.97
58753;BME280;44525;46.052;13.610;2022-12-18T11:55:15;102333.81;;;8.39;42.98
58753;BME280;44525;46.052;13.610;2022-12-18T12:00:19;102328.34;;;8.02;44.86
58753;BME280;44525;46.052;13.610;2022-12-18T12:16:59;102308.59;;;10.50;38.83
58753;BME280;44525;46.052;13.610;2022-12-18T12:18:59;102309.09;;;9.76;39.92
58753;BME280;44525;46.052;13.610;2022-12-18T12:21:50;102307.31;;;10.05;40.30
58753;BME280;44525;46.052;13.610;2022-12-18T12:24:18;102310.84;;;10.17;39.85
58753;BME280;44525;46.052;13.610;2022-12-18T12:27:07;102309.44;;;9.37;40.56
58753;BME280;44525;46.052;13.610;2022-12-18T12:32:43;102306.25;;;10.18;39.49
58753;BME280;44525;46.052;13.610;2022-12-18T12:40:59;102312.53;;;10.83;37.95
58753;BME280;44525;46.052;13.610;2022-12-18T12:43:38;102311.53;;;11.30;37.55
58753;BME280;44525;46.052;13.610;2022-12-18T12:46:11;102310.28;;;11.37;36.48
58753;BME280;44525;46.052;13.610;2022-12-18T12:48:56;102315.81;;;10.56;39.42
58753;BME280;44525;46.052;13.610;2022-12-18T12:51:31;102326.53;;;11.49;37.03
58753;BME280;44525;46.052;13.610;2022-12-18T12:53:57;102335.84;;;10.67;37.24
58753;BME280;44525;46.052;13.610;2022-12-18T12:56:37;102326.47;;;11.44;37.49
58753;BME280;44525;46.052;13.610;2022-12-18T13:05:02;102325.59;;;10.98;36.97
58753;BME280;44525;46.052;13.610;2022-12-18T13:07:53;102327.94;;;10.65;37.23
58753;BME280;44525;46.052;13.610;2022-12-18T13:13:09;102342.78;;;11.15;36.97
58753;BME280;44525;46.052;13.610;2022-12-18T13:18:23;102340.94;;;10.63;38.11
58753;BME280;44525;46.052;13.610;2022-12-18T13:34:22;102348.34;;;5.73;49.72
58753;BME280;44525;46.052;13.610;2022-12-18T13:36:48;102362.03;;;5.58;49.98
58753;BME280;44525;46.052;13.610;2022-12-18T13:41:40;102367.38;;;5.52;50.48
58753;BME280;44525;46.052;13.610;2022-12-18T13:44:13;102361.13;;;5.31;52.07
58753;BME280;44525;46.052;13.610;2022-12-18T13:46:46;102357.09;;;5.07;51.90
58753;BME280;44525;46.052;13.610;2022-12-18T13:51:41;102350.69;;;5.08;52.14
58753;BME280;44525;46.052;13.610;2022-12-18T13:56:47;102355.47;;;5.13;51.52
58753;BME280;44525;46.052;13.610;2022-12-18T13:59:25;102351.22;;;4.83;52.72
58753;BME280;44525;46.052;13.610;2022-12-18T14:04:27;102343.94;;;4.77;52.72
58753;BME280;44525;46.052;13.610;2022-12-18T14:07:05;102348.72;;;4.88;54.10
58753;BME280;44525;46.052;13.610;2022-12-18T14:09:35;102343.53;;;4.80;53.45
58753;BME280;44525;46.052;13.610;2022-12-18T14:12:01;102332.53;;;4.75;53.39
58753;BME280;44525;46.052;13.610;2022-12-18T14:14:48;102336.75;;;4.91;52.80
58753;BME280;44525;46.052;13.610;2022-12-18T14:17:15;102331.84;;;4.60;54.22
58753;BME280;44525;46.052;13.610;2022-12-18T14:19:42;102327.13;;;4.68;54.30
58753;BME280;44525;46.052;13.610;2022-12-18T14:22:15;102335.81;;;4.64;56.26
58753;BME280;44525;46.052;13.610;2022-12-18T14:24:41;102345.38;;;4.73;54.98
58753;BME280;44525;46.052;13.610;2022-12-18T14:27:25;102335.09;;;4.48;55.44
58753;BME280;44525;46.052;13.610;2022-12-18T14:29:50;102339.78;;;4.39;56.18
58753;BME280;44525;46.052;13.610;2022-12-18T14:32:18;102336.56;;;4.51;55.00
58753;BME280;44525;46.052;13.610;2022-12-18T14:34:52;102348.22;;;4.30;55.96
58753;BME280;44525;46.052;13.610;2022-12-18T14:37:23;102353.44;;;4.38;55.37
58753;BME280;44525;46.052;13.610;2022-12-18T14:39:56;102355.66;;;4.28;55.56
58753;BME280;44525;46.052;13.610;2022-12-18T14:42:26;102347.53;;;4.21;56.64
58753;BME280;44525;46.052;13.610;2022-12-18T14:47:57;102354.94;;;4.12;56.78